createdAt,value
2019-02-02T00:01:54.315Z,6.27
2019-02-02T00:04:24.531Z,6.53
2019-02-02T00:06:57.388Z,6.30
2019-02-02T00:09:29.791Z,5.23
2019-02-02T00:11:59.731Z,6.00
2019-02-02T00:14:29.739Z,7.33
2019-02-02T00:16:59.416Z,7.10
2019-02-02T00:19:29.158Z,5.63
2019-02-02T00:21:58.867Z,6.80
2019-02-02T00:24:28.740Z,6.30
2019-02-02T00:26:58.430Z,6.47
2019-02-02T00:29:28.309Z,6.00
2019-02-02T00:31:57.886Z,6.47
2019-02-02T00:34:27.566Z,5.93
2019-02-02T00:36:59.181Z,5.97
2019-02-02T00:39:28.506Z,5.90
2019-02-02T00:41:58.311Z,6.80
2019-02-02T00:44:28.335Z,5.07
2019-02-02T00:46:58.012Z,5.40
2019-02-02T00:49:27.715Z,5.47
2019-02-02T00:51:57.399Z,4.63
2019-02-02T00:54:27.033Z,4.03
2019-02-02T00:56:56.819Z,3.50
2019-02-02T00:59:26.534Z,3.60
2019-02-02T01:01:56.240Z,3.93
2019-02-02T01:04:26.015Z,5.10
2019-02-02T01:06:56.084Z,5.10
2019-02-02T01:09:26.878Z,4.43
2019-02-02T01:11:56.592Z,3.90
2019-02-02T01:14:26.272Z,4.50
2019-02-02T01:16:56.427Z,4.70
2019-02-02T01:19:26.189Z,4.80
2019-02-02T01:21:56.119Z,4.20
2019-02-02T01:24:25.806Z,4.03
2019-02-02T01:26:55.487Z,4.57
2019-02-02T01:29:25.378Z,4.57
2019-02-02T01:31:55.150Z,3.97
2019-02-02T01:34:24.907Z,4.40
2019-02-02T01:36:54.528Z,4.30
2019-02-02T01:39:24.295Z,7.00
2019-02-02T01:41:54.098Z,5.63
2019-02-02T01:44:23.713Z,7.30
2019-02-02T01:46:53.483Z,9.53
2019-02-02T01:49:23.253Z,11.37
2019-02-02T01:51:53.299Z,17.23
2019-02-02T01:54:22.995Z,13.17
2019-02-02T01:56:52.867Z,10.87
2019-02-02T01:59:22.531Z,12.43
2019-02-02T02:01:53.779Z,12.77
2019-02-02T02:04:23.786Z,12.03
2019-02-02T02:06:53.692Z,11.97
2019-02-02T02:09:23.583Z,13.93
2019-02-02T02:11:53.271Z,12.60
2019-02-02T02:14:23.023Z,15.00
2019-02-02T02:16:52.941Z,20.80
2019-02-02T02:19:22.619Z,13.10
2019-02-02T02:21:52.519Z,12.73
2019-02-02T02:24:22.118Z,11.10
2019-02-02T02:26:52.042Z,6.13
2019-02-02T02:29:21.728Z,4.63
2019-02-02T02:31:51.471Z,5.17
2019-02-02T02:34:21.146Z,5.30
2019-02-02T02:36:51.081Z,4.20
2019-02-02T02:39:20.730Z,4.60
2019-02-02T02:41:50.500Z,3.50
2019-02-02T02:44:20.428Z,4.17
2019-02-02T02:46:50.123Z,3.40
2019-02-02T02:49:19.739Z,3.90
2019-02-02T02:51:49.438Z,3.40
2019-02-02T02:54:19.103Z,3.97
2019-02-02T02:56:48.704Z,3.30
2019-02-02T02:59:18.308Z,4.20
2019-02-02T03:01:47.976Z,4.00
2019-02-02T03:04:17.979Z,3.50
2019-02-02T03:06:47.718Z,3.80
2019-02-02T03:09:17.342Z,4.10
2019-02-02T03:11:47.091Z,3.50
2019-02-02T03:14:16.795Z,4.30
2019-02-02T03:16:46.829Z,4.27
2019-02-02T03:19:16.604Z,4.07
2019-02-02T03:21:46.200Z,4.03
2019-02-02T03:24:15.935Z,3.67
2019-02-02T03:26:45.772Z,4.50
2019-02-02T03:29:15.380Z,4.13
2019-02-02T03:31:48.425Z,4.13
2019-02-02T03:34:16.370Z,4.00
2019-02-02T03:36:46.026Z,3.50
2019-02-02T03:39:15.656Z,3.70
2019-02-02T03:41:45.324Z,5.10
2019-02-02T03:44:15.051Z,3.47
2019-02-02T03:46:44.736Z,4.10
2019-02-02T03:49:14.747Z,3.30
2019-02-02T03:51:44.491Z,3.63
2019-02-02T03:54:14.185Z,3.20
2019-02-02T03:56:43.875Z,3.70
2019-02-02T03:59:13.653Z,3.63
2019-02-02T04:01:43.575Z,4.53
2019-02-02T04:04:13.595Z,3.13
2019-02-02T04:06:43.277Z,3.77
2019-02-02T04:09:13.095Z,3.87
2019-02-02T04:11:43.551Z,4.63
2019-02-02T04:14:13.402Z,4.60
2019-02-02T04:16:43.064Z,4.50
2019-02-02T04:19:12.818Z,4.10
2019-02-02T04:21:43.248Z,3.97
2019-02-02T04:24:13.019Z,5.37
2019-02-02T04:26:42.695Z,5.20
2019-02-02T04:29:17.855Z,3.23
2019-02-02T04:31:44.005Z,4.57
2019-02-02T04:34:14.023Z,4.40
2019-02-02T04:36:43.871Z,4.00
2019-02-02T04:39:13.559Z,4.83
2019-02-02T04:41:43.230Z,6.13
2019-02-02T04:44:12.935Z,5.50
2019-02-02T04:46:42.598Z,6.63
2019-02-02T04:49:12.216Z,5.67
2019-02-02T04:51:41.826Z,5.07
2019-02-02T04:54:11.784Z,3.70
2019-02-02T04:56:41.971Z,4.20
2019-02-02T04:59:11.707Z,4.40
2019-02-02T05:01:41.381Z,4.60
2019-02-02T05:04:11.171Z,3.17
2019-02-02T05:06:40.844Z,4.93
2019-02-02T05:09:10.984Z,4.80
2019-02-02T05:11:40.831Z,4.10
2019-02-02T05:14:10.604Z,4.33
2019-02-02T05:16:40.211Z,4.50
2019-02-02T05:19:09.862Z,4.93
2019-02-02T05:21:39.532Z,4.70
2019-02-02T05:24:11.135Z,4.93
2019-02-02T05:26:40.813Z,4.27
2019-02-02T05:29:10.587Z,4.60
2019-02-02T05:31:40.278Z,4.30
2019-02-02T05:34:09.891Z,4.27
2019-02-02T05:36:39.491Z,5.10
2019-02-02T05:39:09.808Z,4.10
2019-02-02T05:41:39.484Z,4.57
2019-02-02T05:44:09.103Z,4.47
2019-02-02T05:46:38.768Z,4.27
2019-02-02T05:49:08.523Z,4.30
2019-02-02T05:51:38.450Z,4.67
2019-02-02T05:54:08.068Z,3.90
2019-02-02T05:56:37.846Z,4.17
2019-02-02T05:59:07.938Z,4.07
2019-02-02T06:01:37.633Z,4.60
2019-02-02T06:04:07.390Z,5.03
2019-02-02T06:06:36.991Z,4.43
2019-02-02T06:09:08.068Z,4.73
2019-02-02T06:11:37.801Z,4.60
2019-02-02T06:14:07.575Z,4.60
2019-02-02T06:16:37.627Z,4.87
2019-02-02T06:19:07.380Z,3.83
2019-02-02T06:21:37.216Z,4.23
2019-02-02T06:24:06.879Z,3.93
2019-02-02T06:26:36.568Z,4.87
2019-02-02T06:29:06.479Z,4.80
2019-02-02T06:31:36.581Z,4.60
2019-02-02T06:34:06.881Z,4.33
2019-02-02T06:36:36.639Z,4.20
2019-02-02T06:39:08.347Z,5.10
2019-02-02T06:41:37.969Z,4.70
2019-02-02T06:44:07.755Z,4.47
2019-02-02T06:46:43.756Z,4.40
2019-02-02T06:49:08.673Z,4.37
2019-02-02T06:51:38.351Z,4.17
2019-02-02T06:54:08.039Z,4.57
2019-02-02T06:56:37.727Z,3.90
2019-02-02T06:59:07.493Z,5.27
2019-02-02T07:01:37.095Z,4.10
2019-02-02T07:04:06.803Z,4.50
2019-02-02T07:06:36.479Z,4.17
2019-02-02T07:09:08.516Z,5.70
2019-02-02T07:11:38.265Z,4.43
2019-02-02T07:14:08.031Z,5.03
2019-02-02T07:16:56.912Z,5.03
2019-02-02T07:19:29.145Z,5.70
2019-02-02T07:21:58.323Z,5.40
2019-02-02T07:24:28.006Z,5.30
2019-02-02T07:26:57.695Z,5.33
2019-02-02T07:29:27.388Z,5.20
2019-02-02T07:31:57.052Z,4.30
2019-02-02T07:34:26.771Z,4.60
2019-02-02T07:36:56.515Z,4.17
2019-02-02T07:39:26.218Z,5.00
2019-02-02T07:41:55.808Z,4.10
2019-02-02T07:44:25.539Z,3.40
2019-02-02T07:46:55.456Z,3.40
2019-02-02T07:49:25.182Z,3.30
2019-02-02T07:51:55.091Z,2.90
2019-02-02T07:54:26.157Z,3.10
2019-02-02T07:56:55.819Z,2.93
2019-02-02T07:59:25.621Z,6.33
2019-02-02T08:01:55.299Z,6.60
2019-02-02T08:04:25.039Z,5.90
2019-02-02T08:06:54.712Z,7.90
2019-02-02T08:09:24.424Z,7.30
2019-02-02T08:11:54.118Z,6.20
2019-02-02T08:14:23.823Z,4.90
2019-02-02T08:16:53.424Z,4.47
2019-02-02T08:19:25.649Z,7.37
2019-02-02T08:21:54.917Z,12.13
2019-02-02T08:24:24.652Z,9.27
2019-02-02T08:26:54.379Z,5.40
2019-02-02T08:29:24.316Z,50.03
2019-02-02T08:31:54.291Z,16.30
2019-02-02T08:34:24.146Z,5.87
2019-02-02T08:36:54.331Z,4.07
2019-02-02T08:39:29.257Z,4.13
2019-02-02T08:41:55.415Z,6.60
2019-02-02T08:44:25.215Z,5.97
2019-02-02T08:46:54.943Z,5.80
2019-02-02T08:49:24.544Z,5.60
2019-02-02T08:51:54.164Z,5.20
2019-02-02T08:54:23.879Z,6.07
2019-02-02T08:56:53.731Z,5.33
2019-02-02T08:59:23.619Z,5.73
2019-02-02T09:01:53.403Z,5.20
2019-02-02T09:04:23.068Z,5.53
2019-02-02T09:06:52.945Z,5.33
2019-02-02T09:09:22.611Z,5.30
2019-02-02T09:11:52.299Z,5.00
2019-02-02T09:14:22.252Z,4.70
2019-02-02T09:16:51.879Z,5.40
2019-02-02T09:19:21.735Z,4.90
2019-02-02T09:21:51.368Z,4.67
2019-02-02T09:24:21.310Z,5.07
2019-02-02T09:26:51.012Z,4.90
2019-02-02T09:29:21.015Z,5.00
2019-02-02T09:31:50.803Z,3.93
2019-02-02T09:34:20.467Z,4.53
2019-02-02T09:36:50.119Z,4.30
2019-02-02T09:39:19.809Z,6.70
2019-02-02T09:41:49.491Z,5.10
2019-02-02T09:44:19.512Z,4.00
2019-02-02T09:46:49.235Z,5.30
2019-02-02T09:49:19.521Z,4.17
2019-02-02T09:51:49.288Z,4.70
2019-02-02T09:54:26.443Z,4.50
2019-02-02T09:56:50.975Z,4.67
2019-02-02T09:59:20.683Z,4.67
2019-02-02T10:01:50.447Z,4.53
2019-02-02T10:04:20.168Z,4.20
2019-02-02T10:06:49.879Z,4.60
2019-02-02T10:09:19.660Z,4.40
2019-02-02T10:11:49.555Z,3.83
2019-02-02T10:14:19.535Z,4.37
2019-02-02T10:16:49.208Z,4.70
2019-02-02T10:19:18.964Z,3.90
2019-02-02T10:21:49.763Z,3.53
2019-02-02T10:24:19.704Z,4.33
2019-02-02T10:26:49.323Z,4.67
2019-02-02T10:29:19.004Z,5.00
2019-02-02T10:31:48.868Z,4.97
2019-02-02T10:34:30.531Z,5.50
2019-02-02T10:37:00.166Z,3.50
2019-02-02T10:39:29.832Z,3.80
2019-02-02T10:41:59.831Z,4.60
2019-02-02T10:44:29.799Z,3.93
2019-02-02T10:46:59.475Z,3.90
2019-02-02T10:49:29.165Z,3.73
2019-02-02T10:51:58.942Z,5.17
2019-02-02T10:54:28.607Z,4.43
2019-02-02T10:56:58.659Z,5.20
2019-02-02T10:59:28.417Z,4.00
2019-02-02T11:01:58.231Z,4.20
2019-02-02T11:04:28.503Z,4.00
2019-02-02T11:06:58.259Z,5.03
2019-02-02T11:09:27.945Z,5.17
2019-02-02T11:11:57.677Z,4.80
2019-02-02T11:14:27.635Z,4.80
2019-02-02T11:16:57.491Z,4.70
2019-02-02T11:19:27.307Z,5.13
2019-02-02T11:21:56.995Z,4.30
2019-02-02T11:24:26.713Z,4.30
2019-02-02T11:26:56.506Z,3.60
2019-02-02T11:29:26.239Z,4.60
2019-02-02T11:32:02.868Z,3.80
2019-02-02T11:34:27.378Z,4.50
2019-02-02T11:36:57.464Z,3.53
2019-02-02T11:39:27.157Z,3.70
2019-02-02T11:41:56.879Z,3.60
2019-02-02T11:44:26.556Z,4.10
2019-02-02T11:46:56.209Z,4.03
2019-02-02T11:49:25.886Z,3.20
2019-02-02T11:51:55.524Z,3.60
2019-02-02T11:54:25.233Z,3.80
2019-02-02T11:56:55.080Z,3.77
2019-02-02T11:59:24.763Z,4.30
2019-02-02T12:01:54.453Z,4.40
2019-02-02T12:04:24.178Z,5.30
2019-02-02T12:06:53.871Z,4.53
2019-02-02T12:09:23.616Z,4.10
2019-02-02T12:11:53.427Z,4.17
2019-02-02T12:14:23.111Z,4.33
2019-02-02T12:16:52.931Z,4.50
2019-02-02T12:19:22.675Z,4.70
2019-02-02T12:21:52.655Z,5.10
2019-02-02T12:24:22.523Z,4.10
2019-02-02T12:26:52.282Z,4.77
2019-02-02T12:29:22.025Z,5.20
2019-02-02T12:31:51.946Z,7.00
2019-02-02T12:34:21.947Z,11.57
2019-02-02T12:36:51.635Z,5.87
2019-02-02T12:39:22.464Z,5.40
2019-02-02T12:41:52.263Z,5.97
2019-02-02T12:44:22.181Z,5.73
2019-02-02T12:46:52.023Z,5.27
2019-02-02T12:49:21.775Z,5.77
2019-02-02T12:51:51.746Z,5.20
2019-02-02T12:54:21.501Z,4.90
2019-02-02T12:56:51.413Z,5.63
2019-02-02T12:59:21.119Z,4.83
2019-02-02T13:01:50.823Z,5.40
2019-02-02T13:04:20.548Z,4.90
2019-02-02T13:06:52.246Z,5.00
2019-02-02T13:09:22.003Z,4.27
2019-02-02T13:11:51.723Z,4.30
2019-02-02T13:14:21.351Z,5.00
2019-02-02T13:16:51.063Z,4.00
2019-02-02T13:19:20.690Z,4.03
2019-02-02T13:21:50.519Z,4.00
2019-02-02T13:24:20.187Z,4.07
2019-02-02T13:26:49.820Z,7.17
2019-02-02T13:29:19.520Z,4.10
2019-02-02T13:31:49.375Z,4.07
2019-02-02T13:34:19.049Z,4.20
2019-02-02T13:36:49.065Z,3.70
2019-02-02T13:39:18.767Z,3.60
2019-02-02T13:41:48.475Z,3.73
2019-02-02T13:44:18.083Z,3.57
2019-02-02T13:46:47.791Z,3.27
2019-02-02T13:49:17.665Z,3.37
2019-02-02T13:51:47.344Z,3.57
2019-02-02T13:54:16.935Z,4.80
2019-02-02T13:56:49.843Z,3.73
2019-02-02T13:59:19.092Z,3.60
2019-02-02T14:01:48.817Z,3.60
2019-02-02T14:04:20.440Z,3.87
2019-02-02T14:06:50.584Z,3.73
2019-02-02T14:09:20.207Z,3.37
2019-02-02T14:11:50.164Z,4.00
2019-02-02T14:14:19.840Z,4.33
2019-02-02T14:16:49.780Z,4.60
2019-02-02T14:19:19.483Z,4.50
2019-02-02T14:21:54.773Z,4.87
2019-02-02T14:24:22.271Z,4.30
2019-02-02T14:26:52.092Z,4.00
2019-02-02T14:29:21.776Z,4.23
2019-02-02T14:31:51.459Z,5.03
2019-02-02T14:34:21.159Z,5.43
2019-02-02T14:36:50.755Z,5.40
2019-02-02T14:39:20.815Z,3.67
2019-02-02T14:41:50.504Z,5.30
2019-02-02T14:44:20.506Z,6.10
2019-02-02T14:46:50.112Z,5.53
2019-02-02T14:49:19.807Z,4.87
2019-02-02T14:51:49.510Z,4.93
2019-02-02T14:54:19.297Z,5.70
2019-02-02T14:56:48.988Z,5.60
2019-02-02T14:59:18.619Z,6.50
2019-02-02T15:01:48.295Z,6.10
2019-02-02T15:04:17.985Z,6.20
2019-02-02T15:06:47.728Z,6.00
2019-02-02T15:09:17.780Z,5.80
2019-02-02T15:11:47.523Z,6.47
2019-02-02T15:14:17.168Z,8.53
2019-02-02T15:16:46.915Z,6.40
2019-02-02T15:19:16.950Z,6.30
2019-02-02T15:21:46.578Z,6.63
2019-02-02T15:24:16.298Z,6.33
2019-02-02T15:26:45.962Z,7.07
2019-02-02T15:29:15.924Z,6.97
2019-02-02T15:31:45.670Z,7.37
2019-02-02T15:34:15.448Z,6.97
2019-02-02T15:36:45.102Z,6.87
2019-02-02T15:39:14.898Z,7.00
2019-02-02T15:41:52.625Z,7.60
2019-02-02T15:44:16.057Z,7.10
2019-02-02T15:46:49.089Z,8.00
2019-02-02T15:49:17.099Z,9.30
2019-02-02T15:51:46.950Z,9.03
2019-02-02T15:54:16.866Z,8.43
2019-02-02T15:56:46.472Z,9.63
2019-02-02T15:59:16.128Z,9.90
2019-02-02T16:01:45.891Z,9.03
2019-02-02T16:04:15.887Z,9.60
2019-02-02T16:06:45.822Z,9.57
2019-02-02T16:09:16.289Z,9.47
2019-02-02T16:11:45.990Z,8.20
2019-02-02T16:14:35.172Z,9.07
2019-02-02T16:17:05.017Z,7.90
2019-02-02T16:19:34.781Z,7.30
2019-02-02T16:22:04.572Z,8.10
2019-02-02T16:24:34.524Z,8.83
2019-02-02T16:27:04.660Z,8.60
2019-02-02T16:29:34.299Z,8.33
2019-02-02T16:32:04.151Z,8.87
2019-02-02T16:34:33.906Z,9.67
2019-02-02T16:37:03.655Z,10.10
2019-02-02T16:39:33.372Z,7.63
2019-02-02T16:42:03.583Z,10.80
2019-02-02T16:44:33.533Z,11.00
2019-02-02T16:47:03.231Z,10.10
2019-02-02T16:49:33.170Z,10.20
2019-02-02T16:52:02.884Z,10.23
2019-02-02T16:54:32.482Z,11.30
2019-02-02T16:57:06.526Z,11.60
2019-02-02T16:59:37.426Z,12.80
2019-02-02T17:02:07.223Z,10.87
2019-02-02T17:04:37.023Z,11.00
2019-02-02T17:07:08.570Z,11.87
2019-02-02T17:09:38.306Z,11.47
2019-02-02T17:12:09.784Z,11.83
2019-02-02T17:14:39.972Z,10.90
2019-02-02T17:17:09.779Z,12.50
2019-02-02T17:19:39.464Z,12.77
2019-02-02T17:22:09.235Z,12.10
2019-02-02T17:24:38.884Z,13.00
2019-02-02T17:27:09.316Z,11.30
2019-02-02T17:29:39.019Z,11.77
2019-02-02T17:32:09.035Z,11.43
2019-02-02T17:34:38.691Z,11.23
2019-02-02T17:37:08.310Z,11.17
2019-02-02T17:39:39.558Z,9.47
2019-02-02T17:42:09.219Z,9.57
2019-02-02T17:44:38.911Z,9.60
2019-02-02T17:47:08.643Z,8.97
2019-02-02T17:49:38.330Z,9.70
2019-02-02T17:52:08.391Z,9.03
2019-02-02T17:54:37.991Z,8.90
2019-02-02T17:57:07.636Z,9.67
2019-02-02T17:59:37.299Z,9.20
2019-02-02T18:02:07.203Z,8.80
2019-02-02T18:04:41.114Z,9.03
2019-02-02T18:07:08.771Z,9.27
2019-02-02T18:09:38.775Z,8.30
2019-02-02T18:12:08.530Z,8.20
2019-02-02T18:14:38.360Z,8.00
2019-02-02T18:17:08.038Z,8.47
2019-02-02T18:19:37.913Z,8.27
2019-02-02T18:22:07.763Z,7.80
2019-02-02T18:24:37.611Z,9.17
2019-02-02T18:27:07.272Z,8.97
2019-02-02T18:29:36.973Z,7.50
2019-02-02T18:32:13.316Z,8.50
2019-02-02T18:34:38.314Z,9.53
2019-02-02T18:37:08.063Z,9.83
2019-02-02T18:39:56.985Z,8.63
2019-02-02T18:42:26.904Z,9.03
2019-02-02T18:44:56.528Z,8.60
2019-02-02T18:47:26.250Z,9.50
2019-02-02T18:49:55.867Z,8.37
2019-02-02T18:52:45.679Z,9.80
2019-02-02T18:55:36.663Z,8.87
2019-02-02T18:58:06.610Z,9.73
2019-02-02T19:00:36.501Z,8.00
2019-02-02T19:03:07.677Z,9.20
2019-02-02T19:05:37.599Z,9.60
2019-02-02T19:08:07.711Z,7.97
2019-02-02T19:10:38.890Z,9.40
2019-02-02T19:13:10.516Z,8.40
2019-02-02T19:15:40.129Z,8.47
2019-02-02T19:18:10.064Z,8.87
2019-02-02T19:20:39.833Z,8.00
2019-02-02T19:23:09.513Z,9.80
2019-02-02T19:25:39.224Z,9.20
2019-02-02T19:28:09.187Z,9.27
2019-02-02T19:30:39.092Z,9.50
2019-02-02T19:33:08.924Z,10.50
2019-02-02T19:35:38.608Z,9.27
2019-02-02T19:38:08.437Z,10.10
2019-02-02T19:40:38.412Z,10.80
2019-02-02T19:43:08.071Z,11.90
2019-02-02T19:45:37.882Z,13.87
2019-02-02T19:48:07.644Z,11.10
2019-02-02T19:50:37.772Z,11.63
2019-02-02T19:53:07.603Z,13.00
2019-02-02T19:55:37.605Z,13.73
2019-02-02T19:58:07.391Z,12.53
2019-02-02T20:00:37.271Z,13.67
2019-02-02T20:03:06.995Z,13.17
2019-02-02T20:05:37.165Z,13.00
2019-02-02T20:08:07.103Z,13.30
2019-02-02T20:10:36.918Z,12.90
2019-02-02T20:13:06.976Z,16.87
2019-02-02T20:15:36.618Z,13.10
2019-02-02T20:18:10.057Z,13.83
2019-02-02T20:20:37.715Z,14.60
2019-02-02T20:23:07.399Z,13.63
2019-02-02T20:25:37.133Z,14.57
2019-02-02T20:28:06.982Z,15.93
2019-02-02T20:30:36.623Z,13.77
2019-02-02T20:33:06.383Z,13.93
2019-02-02T20:35:41.876Z,13.87
2019-02-02T20:38:07.759Z,14.50
2019-02-02T20:40:37.547Z,14.03
2019-02-02T20:43:07.375Z,12.90
2019-02-02T20:45:37.252Z,13.50
2019-02-02T20:48:07.267Z,15.23
2019-02-02T20:50:36.920Z,15.10
2019-02-02T20:53:06.715Z,14.90
2019-02-02T20:55:40.284Z,15.20
2019-02-02T20:58:10.007Z,13.90
2019-02-02T21:00:39.647Z,14.80
2019-02-02T21:03:09.379Z,13.00
2019-02-02T21:05:39.038Z,12.27
2019-02-02T21:08:08.719Z,12.70
2019-02-02T21:10:38.364Z,12.47
2019-02-02T21:13:08.684Z,13.47
2019-02-02T21:15:38.395Z,12.60
2019-02-02T21:18:08.331Z,13.10
2019-02-02T21:20:39.890Z,12.60
2019-02-02T21:23:09.679Z,14.03
2019-02-02T21:25:39.334Z,11.90
2019-02-02T21:28:09.125Z,14.70
2019-02-02T21:30:38.869Z,12.53
2019-02-02T21:33:09.041Z,12.43
2019-02-02T21:35:38.739Z,13.10
2019-02-02T21:38:09.107Z,12.20
2019-02-02T21:40:38.730Z,13.43
2019-02-02T21:43:09.087Z,12.83
2019-02-02T21:45:39.272Z,12.77
2019-02-02T21:48:09.091Z,12.97
2019-02-02T21:50:39.043Z,11.87
2019-02-02T21:53:09.021Z,11.47
2019-02-02T21:55:38.725Z,11.33
2019-02-02T21:58:08.812Z,11.47
2019-02-02T22:00:40.455Z,10.83
2019-02-02T22:03:10.563Z,12.50
2019-02-02T22:05:40.315Z,12.83
2019-02-02T22:08:10.712Z,11.70
2019-02-02T22:10:40.792Z,12.00
2019-02-02T22:13:10.829Z,11.43
2019-02-02T22:15:40.835Z,12.20
2019-02-02T22:18:10.587Z,11.47
2019-02-02T22:20:40.250Z,12.37
2019-02-02T22:23:10.635Z,11.77
2019-02-02T22:25:40.360Z,12.23
2019-02-02T22:28:10.047Z,11.40
2019-02-02T22:30:40.118Z,12.77
2019-02-02T22:33:09.979Z,12.80
2019-02-02T22:35:39.979Z,13.37
2019-02-02T22:38:09.771Z,11.63
2019-02-02T22:40:39.393Z,12.37
2019-02-02T22:43:09.119Z,11.53
2019-02-02T22:45:38.787Z,13.87
2019-02-02T22:48:08.575Z,13.43
2019-02-02T22:50:38.432Z,12.13
2019-02-02T22:53:08.203Z,12.00
2019-02-02T22:55:37.915Z,11.77
2019-02-02T22:58:07.723Z,11.63
2019-02-02T23:01:10.871Z,11.60
2019-02-02T23:03:50.206Z,13.33
2019-02-02T23:06:56.148Z,12.50
2019-02-02T23:10:19.121Z,12.37
2019-02-02T23:13:21.327Z,11.97
2019-02-02T23:16:05.557Z,11.37
2019-02-02T23:18:35.513Z,12.10
2019-02-02T23:21:09.729Z,10.43
2019-02-02T23:23:39.984Z,11.87
2019-02-02T23:26:09.781Z,11.27
2019-02-02T23:28:39.416Z,10.80
2019-02-02T23:31:09.260Z,10.90
2019-02-02T23:33:39.334Z,10.10
2019-02-02T23:36:09.128Z,10.50
2019-02-02T23:38:38.810Z,10.53
2019-02-02T23:41:08.827Z,9.90
2019-02-02T23:43:38.810Z,10.40
2019-02-02T23:46:08.962Z,9.67
2019-02-02T23:48:38.663Z,9.40
2019-02-02T23:51:27.725Z,10.27
2019-02-02T23:53:57.475Z,8.50
2019-02-02T23:56:28.419Z,8.33
2019-02-02T23:58:58.522Z,8.50
